sensor_id;sensor_type;location;lat;lon;timestamp;temperature;humidity
11855;DHT22;5987;53.140;8.904;2022-08-21T00:00:15;15.70;99.90
11855;DHT22;5987;53.140;8.904;2022-08-21T00:03:21;15.80;99.90
11855;DHT22;5987;53.140;8.904;2022-08-21T00:06:26;15.80;99.90
11855;DHT22;5987;53.140;8.904;2022-08-21T00:09:30;15.70;99.90
11855;DHT22;5987;53.140;8.904;2022-08-21T00:12:34;15.70;99.90
11855;DHT22;5987;53.140;8.904;2022-08-21T00:15:39;15.70;99.90
11855;DHT22;5987;53.140;8.904;2022-08-21T00:18:44;15.70;99.90
11855;DHT22;5987;53.140;8.904;2022-08-21T00:21:49;15.80;99.90
11855;DHT22;5987;53.140;8.904;2022-08-21T00:24:52;15.70;99.90
11855;DHT22;5987;53.140;8.904;2022-08-21T00:27:56;15.60;99.90
11855;DHT22;5987;53.140;8.904;2022-08-21T00:31:00;15.70;99.90
11855;DHT22;5987;53.140;8.904;2022-08-21T00:34:06;15.50;99.90
11855;DHT22;5987;53.140;8.904;2022-08-21T00:37:11;15.40;99.90
11855;DHT22;5987;53.140;8.904;2022-08-21T00:40:18;15.30;99.90
11855;DHT22;5987;53.140;8.904;2022-08-21T00:43:27;15.30;99.90
11855;DHT22;5987;53.140;8.904;2022-08-21T00:46:33;15.30;99.90
11855;DHT22;5987;53.140;8.904;2022-08-21T00:49:38;15.20;99.90
11855;DHT22;5987;53.140;8.904;2022-08-21T00:52:45;15.20;99.90
11855;DHT22;5987;53.140;8.904;2022-08-21T00:55:51;15.20;99.90
11855;DHT22;5987;53.140;8.904;2022-08-21T00:58:58;15.20;99.90
11855;DHT22;5987;53.140;8.904;2022-08-21T01:02:05;15.20;99.90
11855;DHT22;5987;53.140;8.904;2022-08-21T01:05:10;15.10;99.90
11855;DHT22;5987;53.140;8.904;2022-08-21T01:08:17;15.10;99.90
11855;DHT22;5987;53.140;8.904;2022-08-21T01:11:23;15.00;99.90
11855;DHT22;5987;53.140;8.904;2022-08-21T01:14:28;14.90;99.90
11855;DHT22;5987;53.140;8.904;2022-08-21T01:17:33;14.80;99.90
11855;DHT22;5987;53.140;8.904;2022-08-21T01:20:40;14.80;99.90
11855;DHT22;5987;53.140;8.904;2022-08-21T01:23:51;14.80;99.90
11855;DHT22;5987;53.140;8.904;2022-08-21T01:26:56;14.80;99.90
11855;DHT22;5987;53.140;8.904;2022-08-21T01:30:06;14.70;99.90
11855;DHT22;5987;53.140;8.904;2022-08-21T01:33:13;14.60;99.90
11855;DHT22;5987;53.140;8.904;2022-08-21T01:36:17;14.50;99.90
11855;DHT22;5987;53.140;8.904;2022-08-21T01:39:22;14.60;99.90
11855;DHT22;5987;53.140;8.904;2022-08-21T01:42:26;14.70;99.90
11855;DHT22;5987;53.140;8.904;2022-08-21T01:45:30;14.70;99.90
11855;DHT22;5987;53.140;8.904;2022-08-21T01:48:34;14.70;99.90
11855;DHT22;5987;53.140;8.904;2022-08-21T01:51:38;14.80;99.90
11855;DHT22;5987;53.140;8.904;2022-08-21T01:54:43;14.90;99.90
11855;DHT22;5987;53.140;8.904;2022-08-21T01:57:57;14.80;99.90
11855;DHT22;5987;53.140;8.904;2022-08-21T02:01:03;14.80;99.90
11855;DHT22;5987;53.140;8.904;2022-08-21T02:04:09;14.90;99.90
11855;DHT22;5987;53.140;8.904;2022-08-21T02:07:13;14.90;99.90
11855;DHT22;5987;53.140;8.904;2022-08-21T02:10:23;14.70;99.90
11855;DHT22;5987;53.140;8.904;2022-08-21T02:13:28;14.70;99.90
11855;DHT22;5987;53.140;8.904;2022-08-21T02:16:32;14.80;99.90
11855;DHT22;5987;53.140;8.904;2022-08-21T02:19:37;14.70;99.90
11855;DHT22;5987;53.140;8.904;2022-08-21T02:22:41;14.70;99.90
11855;DHT22;5987;53.140;8.904;2022-08-21T02:25:47;14.70;99.90
11855;DHT22;5987;53.140;8.904;2022-08-21T02:28:51;14.70;99.90
11855;DHT22;5987;53.140;8.904;2022-08-21T02:31:55;14.60;99.90
11855;DHT22;5987;53.140;8.904;2022-08-21T02:34:58;14.50;99.90
11855;DHT22;5987;53.140;8.904;2022-08-21T02:38:05;14.50;99.90
11855;DHT22;5987;53.140;8.904;2022-08-21T02:41:18;14.40;99.90
11855;DHT22;5987;53.140;8.904;2022-08-21T02:44:23;14.50;99.90
11855;DHT22;5987;53.140;8.904;2022-08-21T02:47:35;14.70;99.90
11855;DHT22;5987;53.140;8.904;2022-08-21T02:50:41;14.60;99.90
11855;DHT22;5987;53.140;8.904;2022-08-21T02:53:47;14.60;99.90
11855;DHT22;5987;53.140;8.904;2022-08-21T02:56:52;14.70;99.90
11855;DHT22;5987;53.140;8.904;2022-08-21T02:59:56;14.70;99.90
11855;DHT22;5987;53.140;8.904;2022-08-21T03:03:00;14.60;99.90
11855;DHT22;5987;53.140;8.904;2022-08-21T03:06:04;14.60;99.90
11855;DHT22;5987;53.140;8.904;2022-08-21T03:09:08;14.70;99.90
11855;DHT22;5987;53.140;8.904;2022-08-21T03:12:13;14.50;99.90
11855;DHT22;5987;53.140;8.904;2022-08-21T03:15:18;14.50;99.90
11855;DHT22;5987;53.140;8.904;2022-08-21T03:18:25;14.50;99.90
11855;DHT22;5987;53.140;8.904;2022-08-21T03:21:28;14.70;99.90
11855;DHT22;5987;53.140;8.904;2022-08-21T03:24:32;14.80;99.90
11855;DHT22;5987;53.140;8.904;2022-08-21T03:27:37;14.90;99.90
11855;DHT22;5987;53.140;8.904;2022-08-21T03:30:45;14.80;99.90
11855;DHT22;5987;53.140;8.904;2022-08-21T03:33:51;14.50;99.90
11855;DHT22;5987;53.140;8.904;2022-08-21T03:36:56;14.50;99.90
11855;DHT22;5987;53.140;8.904;2022-08-21T03:40:00;14.70;99.90
11855;DHT22;5987;53.140;8.904;2022-08-21T03:43:06;14.80;99.90
11855;DHT22;5987;53.140;8.904;2022-08-21T03:46:11;14.70;99.90
11855;DHT22;5987;53.140;8.904;2022-08-21T03:49:15;14.60;99.90
11855;DHT22;5987;53.140;8.904;2022-08-21T03:52:19;14.60;99.90
11855;DHT22;5987;53.140;8.904;2022-08-21T03:55:25;14.40;99.90
11855;DHT22;5987;53.140;8.904;2022-08-21T03:58:30;14.30;99.90
11855;DHT22;5987;53.140;8.904;2022-08-21T04:01:34;14.10;99.90
11855;DHT22;5987;53.140;8.904;2022-08-21T04:04:38;14.30;99.90
11855;DHT22;5987;53.140;8.904;2022-08-21T04:07:42;14.50;99.90
11855;DHT22;5987;53.140;8.904;2022-08-21T04:10:48;14.70;99.90
11855;DHT22;5987;53.140;8.904;2022-08-21T04:13:55;14.80;99.90
11855;DHT22;5987;53.140;8.904;2022-08-21T04:16:59;14.80;99.90
11855;DHT22;5987;53.140;8.904;2022-08-21T04:20:04;14.80;99.90
11855;DHT22;5987;53.140;8.904;2022-08-21T04:23:08;14.80;99.90
11855;DHT22;5987;53.140;8.904;2022-08-21T04:26:12;14.60;99.90
11855;DHT22;5987;53.140;8.904;2022-08-21T04:29:17;14.60;99.90
11855;DHT22;5987;53.140;8.904;2022-08-21T04:32:24;14.80;99.90
11855;DHT22;5987;53.140;8.904;2022-08-21T04:35:29;14.80;99.90
11855;DHT22;5987;53.140;8.904;2022-08-21T04:38:33;14.80;99.90
11855;DHT22;5987;53.140;8.904;2022-08-21T04:41:38;14.80;99.90
11855;DHT22;5987;53.140;8.904;2022-08-21T04:44:44;14.80;99.90
11855;DHT22;5987;53.140;8.904;2022-08-21T04:47:51;14.90;99.90
11855;DHT22;5987;53.140;8.904;2022-08-21T04:51:00;14.90;99.90
11855;DHT22;5987;53.140;8.904;2022-08-21T04:54:12;14.80;99.90
11855;DHT22;5987;53.140;8.904;2022-08-21T04:57:20;14.70;99.90
11855;DHT22;5987;53.140;8.904;2022-08-21T05:00:42;14.90;99.90
11855;DHT22;5987;53.140;8.904;2022-08-21T05:03:47;15.00;99.90
11855;DHT22;5987;53.140;8.904;2022-08-21T05:06:57;14.90;99.90
11855;DHT22;5987;53.140;8.904;2022-08-21T05:10:04;15.00;99.90
11855;DHT22;5987;53.140;8.904;2022-08-21T05:13:09;15.00;99.90
11855;DHT22;5987;53.140;8.904;2022-08-21T05:16:16;14.90;99.90
11855;DHT22;5987;53.140;8.904;2022-08-21T05:19:38;14.70;99.90
11855;DHT22;5987;53.140;8.904;2022-08-21T05:22:42;14.60;99.90
11855;DHT22;5987;53.140;8.904;2022-08-21T05:25:46;14.60;99.90
11855;DHT22;5987;53.140;8.904;2022-08-21T05:28:50;14.50;99.90
11855;DHT22;5987;53.140;8.904;2022-08-21T05:31:55;14.60;99.90
11855;DHT22;5987;53.140;8.904;2022-08-21T05:34:59;14.90;99.90
11855;DHT22;5987;53.140;8.904;2022-08-21T05:38:03;14.90;99.90
11855;DHT22;5987;53.140;8.904;2022-08-21T05:41:17;14.90;99.90
11855;DHT22;5987;53.140;8.904;2022-08-21T05:44:21;14.90;99.90
11855;DHT22;5987;53.140;8.904;2022-08-21T05:47:28;14.90;99.90
11855;DHT22;5987;53.140;8.904;2022-08-21T05:50:31;15.20;99.90
11855;DHT22;5987;53.140;8.904;2022-08-21T05:53:39;15.40;99.90
11855;DHT22;5987;53.140;8.904;2022-08-21T05:56:44;15.80;99.90
11855;DHT22;5987;53.140;8.904;2022-08-21T05:59:48;16.50;99.90
11855;DHT22;5987;53.140;8.904;2022-08-21T06:02:53;16.90;99.90
11855;DHT22;5987;53.140;8.904;2022-08-21T06:05:57;16.90;99.90
11855;DHT22;5987;53.140;8.904;2022-08-21T06:09:02;17.20;99.90
11855;DHT22;5987;53.140;8.904;2022-08-21T06:12:08;17.20;99.90
11855;DHT22;5987;53.140;8.904;2022-08-21T06:15:13;17.30;99.90
11855;DHT22;5987;53.140;8.904;2022-08-21T06:18:18;17.60;99.90
11855;DHT22;5987;53.140;8.904;2022-08-21T06:21:25;17.80;99.90
11855;DHT22;5987;53.140;8.904;2022-08-21T06:24:29;18.40;99.90
11855;DHT22;5987;53.140;8.904;2022-08-21T06:27:33;18.80;99.90
11855;DHT22;5987;53.140;8.904;2022-08-21T06:30:37;18.70;99.90
11855;DHT22;5987;53.140;8.904;2022-08-21T06:33:44;19.10;99.90
11855;DHT22;5987;53.140;8.904;2022-08-21T06:36:47;19.20;99.90
11855;DHT22;5987;53.140;8.904;2022-08-21T06:39:51;19.40;99.90
11855;DHT22;5987;53.140;8.904;2022-08-21T06:42:55;19.50;99.90
11855;DHT22;5987;53.140;8.904;2022-08-21T06:46:02;19.70;99.90
11855;DHT22;5987;53.140;8.904;2022-08-21T06:49:07;19.80;99.90
11855;DHT22;5987;53.140;8.904;2022-08-21T06:52:22;20.00;99.90
11855;DHT22;5987;53.140;8.904;2022-08-21T06:55:26;20.10;99.90
11855;DHT22;5987;53.140;8.904;2022-08-21T06:58:30;20.10;99.90
11855;DHT22;5987;53.140;8.904;2022-08-21T07:01:34;20.20;99.90
11855;DHT22;5987;53.140;8.904;2022-08-21T07:04:39;20.40;99.90
11855;DHT22;5987;53.140;8.904;2022-08-21T07:07:44;20.60;99.90
11855;DHT22;5987;53.140;8.904;2022-08-21T07:10:48;20.60;99.90
11855;DHT22;5987;53.140;8.904;2022-08-21T07:13:52;20.70;99.90
11855;DHT22;5987;53.140;8.904;2022-08-21T07:16:59;20.90;99.90
11855;DHT22;5987;53.140;8.904;2022-08-21T07:20:05;21.10;99.90
11855;DHT22;5987;53.140;8.904;2022-08-21T07:23:12;21.20;99.90
11855;DHT22;5987;53.140;8.904;2022-08-21T07:26:23;21.20;99.90
11855;DHT22;5987;53.140;8.904;2022-08-21T07:29:27;21.40;99.90
11855;DHT22;5987;53.140;8.904;2022-08-21T07:32:31;21.50;99.90
11855;DHT22;5987;53.140;8.904;2022-08-21T07:35:37;21.70;99.90
11855;DHT22;5987;53.140;8.904;2022-08-21T07:38:41;21.70;99.90
11855;DHT22;5987;53.140;8.904;2022-08-21T07:41:45;21.90;99.90
11855;DHT22;5987;53.140;8.904;2022-08-21T07:44:48;22.20;99.90
11855;DHT22;5987;53.140;8.904;2022-08-21T07:47:56;22.50;99.90
11855;DHT22;5987;53.140;8.904;2022-08-21T07:51:02;22.80;99.90
11855;DHT22;5987;53.140;8.904;2022-08-21T07:54:09;22.80;99.90
11855;DHT22;5987;53.140;8.904;2022-08-21T07:57:18;22.50;99.90
11855;DHT22;5987;53.140;8.904;2022-08-21T08:00:24;22.80;99.90
11855;DHT22;5987;53.140;8.904;2022-08-21T08:03:29;22.70;99.90
11855;DHT22;5987;53.140;8.904;2022-08-21T08:06:34;22.70;99.90
11855;DHT22;5987;53.140;8.904;2022-08-21T08:09:38;22.80;99.90
11855;DHT22;5987;53.140;8.904;2022-08-21T08:12:42;23.10;99.90
11855;DHT22;5987;53.140;8.904;2022-08-21T08:15:47;23.30;99.90
11855;DHT22;5987;53.140;8.904;2022-08-21T08:18:50;23.30;99.90
11855;DHT22;5987;53.140;8.904;2022-08-21T08:21:58;23.40;99.90
11855;DHT22;5987;53.140;8.904;2022-08-21T08:25:02;23.60;99.90
11855;DHT22;5987;53.140;8.904;2022-08-21T08:28:10;23.60;99.90
11855;DHT22;5987;53.140;8.904;2022-08-21T08:31:18;23.70;99.90
11855;DHT22;5987;53.140;8.904;2022-08-21T08:34:22;23.70;99.90
11855;DHT22;5987;53.140;8.904;2022-08-21T08:37:28;23.70;99.60
11855;DHT22;5987;53.140;8.904;2022-08-21T08:40:39;23.60;98.50
11855;DHT22;5987;53.140;8.904;2022-08-21T08:43:50;23.60;97.40
11855;DHT22;5987;53.140;8.904;2022-08-21T08:46:56;23.60;97.30
11855;DHT22;5987;53.140;8.904;2022-08-21T08:50:05;23.60;98.40
11855;DHT22;5987;53.140;8.904;2022-08-21T08:53:15;23.70;96.70
11855;DHT22;5987;53.140;8.904;2022-08-21T08:56:28;23.90;97.00
11855;DHT22;5987;53.140;8.904;2022-08-21T08:59:40;24.10;95.40
11855;DHT22;5987;53.140;8.904;2022-08-21T09:02:46;24.20;95.20
11855;DHT22;5987;53.140;8.904;2022-08-21T09:05:57;24.10;92.70
11855;DHT22;5987;53.140;8.904;2022-08-21T09:09:19;24.10;92.70
11855;DHT22;5987;53.140;8.904;2022-08-21T09:12:37;24.30;92.50
11855;DHT22;5987;53.140;8.904;2022-08-21T09:16:08;24.70;92.20
11855;DHT22;5987;53.140;8.904;2022-08-21T09:19:33;25.10;91.20
11855;DHT22;5987;53.140;8.904;2022-08-21T09:23:02;25.10;89.50
11855;DHT22;5987;53.140;8.904;2022-08-21T09:26:20;24.80;89.20
11855;DHT22;5987;53.140;8.904;2022-08-21T09:29:30;24.60;90.70
11855;DHT22;5987;53.140;8.904;2022-08-21T09:32:38;24.70;91.00
11855;DHT22;5987;53.140;8.904;2022-08-21T09:35:52;24.90;90.70
11855;DHT22;5987;53.140;8.904;2022-08-21T09:38:59;25.00;89.40
11855;DHT22;5987;53.140;8.904;2022-08-21T09:42:08;25.00;90.00
11855;DHT22;5987;53.140;8.904;2022-08-21T09:45:16;25.10;90.40
11855;DHT22;5987;53.140;8.904;2022-08-21T09:48:23;25.10;90.30
11855;DHT22;5987;53.140;8.904;2022-08-21T09:51:36;24.40;90.50
11855;DHT22;5987;53.140;8.904;2022-08-21T09:54:40;24.00;92.40
11855;DHT22;5987;53.140;8.904;2022-08-21T09:57:45;23.70;92.60
11855;DHT22;5987;53.140;8.904;2022-08-21T10:00:57;23.60;93.20
11855;DHT22;5987;53.140;8.904;2022-08-21T10:04:03;23.40;92.80
11855;DHT22;5987;53.140;8.904;2022-08-21T10:07:08;23.20;93.00
11855;DHT22;5987;53.140;8.904;2022-08-21T10:10:17;23.40;93.40
11855;DHT22;5987;53.140;8.904;2022-08-21T10:13:30;23.70;93.20
11855;DHT22;5987;53.140;8.904;2022-08-21T10:16:49;23.90;91.90
11855;DHT22;5987;53.140;8.904;2022-08-21T10:20:04;24.00;93.00
11855;DHT22;5987;53.140;8.904;2022-08-21T10:23:34;24.10;93.20
11855;DHT22;5987;53.140;8.904;2022-08-21T10:26:54;24.30;92.20
11855;DHT22;5987;53.140;8.904;2022-08-21T10:30:10;24.50;91.80
11855;DHT22;5987;53.140;8.904;2022-08-21T10:33:26;24.50;92.20
11855;DHT22;5987;53.140;8.904;2022-08-21T10:36:45;24.60;91.50
11855;DHT22;5987;53.140;8.904;2022-08-21T10:40:18;24.70;91.10
11855;DHT22;5987;53.140;8.904;2022-08-21T10:43:35;24.60;90.50
11855;DHT22;5987;53.140;8.904;2022-08-21T10:46:51;24.40;90.60
11855;DHT22;5987;53.140;8.904;2022-08-21T10:50:07;24.40;90.20
11855;DHT22;5987;53.140;8.904;2022-08-21T10:53:34;24.60;89.90
11855;DHT22;5987;53.140;8.904;2022-08-21T10:56:47;24.80;88.60
11855;DHT22;5987;53.140;8.904;2022-08-21T11:00:04;25.20;87.70
11855;DHT22;5987;53.140;8.904;2022-08-21T11:03:15;25.50;86.60
11855;DHT22;5987;53.140;8.904;2022-08-21T11:06:27;25.60;82.80
11855;DHT22;5987;53.140;8.904;2022-08-21T11:09:34;25.40;81.80
11855;DHT22;5987;53.140;8.904;2022-08-21T11:12:52;25.40;81.90
11855;DHT22;5987;53.140;8.904;2022-08-21T11:16:02;25.50;82.90
11855;DHT22;5987;53.140;8.904;2022-08-21T11:19:15;25.40;81.50
11855;DHT22;5987;53.140;8.904;2022-08-21T11:22:31;25.20;82.60
11855;DHT22;5987;53.140;8.904;2022-08-21T11:25:42;25.10;84.40
11855;DHT22;5987;53.140;8.904;2022-08-21T11:28:54;24.70;85.30
11855;DHT22;5987;53.140;8.904;2022-08-21T11:32:20;24.60;85.40
11855;DHT22;5987;53.140;8.904;2022-08-21T11:35:48;24.50;85.80
11855;DHT22;5987;53.140;8.904;2022-08-21T11:39:02;24.60;85.40
11855;DHT22;5987;53.140;8.904;2022-08-21T11:42:23;24.60;85.40
11855;DHT22;5987;53.140;8.904;2022-08-21T11:45:39;24.70;81.80
11855;DHT22;5987;53.140;8.904;2022-08-21T11:48:59;25.00;84.70
11855;DHT22;5987;53.140;8.904;2022-08-21T11:52:16;25.10;85.70
11855;DHT22;5987;53.140;8.904;2022-08-21T11:55:28;24.80;86.00
11855;DHT22;5987;53.140;8.904;2022-08-21T11:58:38;24.30;87.90
11855;DHT22;5987;53.140;8.904;2022-08-21T12:01:45;24.40;87.70
11855;DHT22;5987;53.140;8.904;2022-08-21T12:04:55;24.30;87.50
11855;DHT22;5987;53.140;8.904;2022-08-21T12:08:14;24.10;86.80
11855;DHT22;5987;53.140;8.904;2022-08-21T12:11:30;24.20;87.80
11855;DHT22;5987;53.140;8.904;2022-08-21T12:14:37;24.40;87.60
11855;DHT22;5987;53.140;8.904;2022-08-21T12:17:56;24.80;86.00
11855;DHT22;5987;53.140;8.904;2022-08-21T12:21:15;24.60;82.90
11855;DHT22;5987;53.140;8.904;2022-08-21T12:24:33;24.50;84.70
11855;DHT22;5987;53.140;8.904;2022-08-21T12:27:45;24.80;82.10
11855;DHT22;5987;53.140;8.904;2022-08-21T12:30:52;24.80;82.70
11855;DHT22;5987;53.140;8.904;2022-08-21T12:34:01;25.00;80.50
11855;DHT22;5987;53.140;8.904;2022-08-21T12:37:15;25.10;80.70
11855;DHT22;5987;53.140;8.904;2022-08-21T12:40:31;25.30;79.90
11855;DHT22;5987;53.140;8.904;2022-08-21T12:43:41;25.40;77.50
11855;DHT22;5987;53.140;8.904;2022-08-21T12:46:53;25.20;77.20
11855;DHT22;5987;53.140;8.904;2022-08-21T12:50:03;25.10;79.10
11855;DHT22;5987;53.140;8.904;2022-08-21T12:53:17;25.40;79.70
11855;DHT22;5987;53.140;8.904;2022-08-21T12:56:34;25.60;79.90
11855;DHT22;5987;53.140;8.904;2022-08-21T12:59:41;25.50;78.60
11855;DHT22;5987;53.140;8.904;2022-08-21T13:02:48;25.50;79.90
11855;DHT22;5987;53.140;8.904;2022-08-21T13:05:53;25.70;79.20
11855;DHT22;5987;53.140;8.904;2022-08-21T13:09:05;25.50;77.60
11855;DHT22;5987;53.140;8.904;2022-08-21T13:12:12;25.40;78.40
11855;DHT22;5987;53.140;8.904;2022-08-21T13:15:29;25.50;78.90
11855;DHT22;5987;53.140;8.904;2022-08-21T13:21:58;26.20;75.40
11855;DHT22;5987;53.140;8.904;2022-08-21T13:25:26;26.10;74.60
11855;DHT22;5987;53.140;8.904;2022-08-21T13:28:34;26.10;75.70
11855;DHT22;5987;53.140;8.904;2022-08-21T13:31:41;25.90;76.70
11855;DHT22;5987;53.140;8.904;2022-08-21T13:34:49;25.90;77.30
11855;DHT22;5987;53.140;8.904;2022-08-21T13:37:56;26.00;76.40
11855;DHT22;5987;53.140;8.904;2022-08-21T13:41:03;25.90;76.00
11855;DHT22;5987;53.140;8.904;2022-08-21T13:44:19;25.90;76.40
11855;DHT22;5987;53.140;8.904;2022-08-21T13:47:28;25.90;74.90
11855;DHT22;5987;53.140;8.904;2022-08-21T13:50:34;26.00;74.80
11855;DHT22;5987;53.140;8.904;2022-08-21T13:53:48;25.90;74.80
11855;DHT22;5987;53.140;8.904;2022-08-21T13:56:55;26.00;74.80
11855;DHT22;5987;53.140;8.904;2022-08-21T14:00:18;25.80;75.80
11855;DHT22;5987;53.140;8.904;2022-08-21T14:03:32;25.90;76.90
11855;DHT22;5987;53.140;8.904;2022-08-21T14:06:39;25.90;75.10
11855;DHT22;5987;53.140;8.904;2022-08-21T14:09:44;26.00;76.10
11855;DHT22;5987;53.140;8.904;2022-08-21T14:12:52;26.10;75.70
11855;DHT22;5987;53.140;8.904;2022-08-21T14:16:10;26.00;76.10
11855;DHT22;5987;53.140;8.904;2022-08-21T14:19:21;26.10;76.40
11855;DHT22;5987;53.140;8.904;2022-08-21T14:22:37;26.00;75.80
11855;DHT22;5987;53.140;8.904;2022-08-21T14:25:43;25.70;74.80
11855;DHT22;5987;53.140;8.904;2022-08-21T14:28:48;25.70;76.90
11855;DHT22;5987;53.140;8.904;2022-08-21T14:31:56;25.70;76.80
11855;DHT22;5987;53.140;8.904;2022-08-21T14:35:02;25.80;75.40
11855;DHT22;5987;53.140;8.904;2022-08-21T14:38:12;25.70;76.10
11855;DHT22;5987;53.140;8.904;2022-08-21T14:41:19;25.90;75.50
11855;DHT22;5987;53.140;8.904;2022-08-21T14:44:29;26.20;74.80
11855;DHT22;5987;53.140;8.904;2022-08-21T14:47:35;26.40;75.40
11855;DHT22;5987;53.140;8.904;2022-08-21T14:50:39;26.20;72.50
11855;DHT22;5987;53.140;8.904;2022-08-21T14:53:44;25.90;72.10
11855;DHT22;5987;53.140;8.904;2022-08-21T14:56:48;25.80;74.40
11855;DHT22;5987;53.140;8.904;2022-08-21T14:59:55;26.00;74.10
11855;DHT22;5987;53.140;8.904;2022-08-21T15:03:04;26.00;73.50
11855;DHT22;5987;53.140;8.904;2022-08-21T15:06:09;25.80;72.70
11855;DHT22;5987;53.140;8.904;2022-08-21T15:09:13;25.50;73.70
11855;DHT22;5987;53.140;8.904;2022-08-21T15:12:16;25.30;75.00
11855;DHT22;5987;53.140;8.904;2022-08-21T15:15:41;25.20;75.40
11855;DHT22;5987;53.140;8.904;2022-08-21T15:18:48;25.00;76.50
11855;DHT22;5987;53.140;8.904;2022-08-21T15:21:52;24.90;77.60
11855;DHT22;5987;53.140;8.904;2022-08-21T15:24:56;24.80;79.20
11855;DHT22;5987;53.140;8.904;2022-08-21T15:28:00;24.90;77.90
11855;DHT22;5987;53.140;8.904;2022-08-21T15:31:05;25.00;77.40
11855;DHT22;5987;53.140;8.904;2022-08-21T15:34:11;25.10;77.10
11855;DHT22;5987;53.140;8.904;2022-08-21T15:37:15;25.20;75.90
11855;DHT22;5987;53.140;8.904;2022-08-21T15:40:18;25.20;75.90
11855;DHT22;5987;53.140;8.904;2022-08-21T15:43:24;25.50;75.80
11855;DHT22;5987;53.140;8.904;2022-08-21T15:46:31;25.60;75.60
11855;DHT22;5987;53.140;8.904;2022-08-21T15:49:36;25.50;75.40
11855;DHT22;5987;53.140;8.904;2022-08-21T15:52:41;25.60;75.70
11855;DHT22;5987;53.140;8.904;2022-08-21T15:55:44;25.80;74.90
11855;DHT22;5987;53.140;8.904;2022-08-21T15:58:49;26.00;74.30
11855;DHT22;5987;53.140;8.904;2022-08-21T16:01:53;26.10;73.70
11855;DHT22;5987;53.140;8.904;2022-08-21T16:04:58;26.10;74.40
11855;DHT22;5987;53.140;8.904;2022-08-21T16:08:02;26.20;73.00
11855;DHT22;5987;53.140;8.904;2022-08-21T16:11:06;26.10;73.60
11855;DHT22;5987;53.140;8.904;2022-08-21T16:14:10;26.10;73.80
11855;DHT22;5987;53.140;8.904;2022-08-21T16:17:15;26.00;73.60
11855;DHT22;5987;53.140;8.904;2022-08-21T16:20:22;26.10;73.70
11855;DHT22;5987;53.140;8.904;2022-08-21T16:23:28;26.10;73.10
11855;DHT22;5987;53.140;8.904;2022-08-21T16:26:32;26.20;73.20
11855;DHT22;5987;53.140;8.904;2022-08-21T16:29:36;26.10;73.00
11855;DHT22;5987;53.140;8.904;2022-08-21T16:32:40;25.90;73.80
11855;DHT22;5987;53.140;8.904;2022-08-21T16:35:46;25.80;74.30
11855;DHT22;5987;53.140;8.904;2022-08-21T16:38:50;25.70;74.20
11855;DHT22;5987;53.140;8.904;2022-08-21T16:41:55;25.50;74.50
11855;DHT22;5987;53.140;8.904;2022-08-21T16:44:59;25.50;74.70
11855;DHT22;5987;53.140;8.904;2022-08-21T16:48:05;25.40;74.90
11855;DHT22;5987;53.140;8.904;2022-08-21T16:51:12;25.20;75.30
11855;DHT22;5987;53.140;8.904;2022-08-21T16:54:16;25.10;75.20
11855;DHT22;5987;53.140;8.904;2022-08-21T16:57:20;24.90;75.80
11855;DHT22;5987;53.140;8.904;2022-08-21T17:00:24;24.80;76.60
11855;DHT22;5987;53.140;8.904;2022-08-21T17:03:31;24.70;77.00
11855;DHT22;5987;53.140;8.904;2022-08-21T17:06:44;24.60;78.00
11855;DHT22;5987;53.140;8.904;2022-08-21T17:09:48;24.70;78.60
11855;DHT22;5987;53.140;8.904;2022-08-21T17:12:54;24.70;78.70
11855;DHT22;5987;53.140;8.904;2022-08-21T17:16:02;24.60;78.60
11855;DHT22;5987;53.140;8.904;2022-08-21T17:19:06;24.60;79.90
11855;DHT22;5987;53.140;8.904;2022-08-21T17:22:12;24.50;85.90
11855;DHT22;5987;53.140;8.904;2022-08-21T17:25:15;24.40;89.40
11855;DHT22;5987;53.140;8.904;2022-08-21T17:28:22;24.10;91.20
11855;DHT22;5987;53.140;8.904;2022-08-21T17:31:29;23.90;92.60
11855;DHT22;5987;53.140;8.904;2022-08-21T17:34:33;23.70;93.90
11855;DHT22;5987;53.140;8.904;2022-08-21T17:37:39;23.50;94.90
11855;DHT22;5987;53.140;8.904;2022-08-21T17:40:43;23.40;95.90
11855;DHT22;5987;53.140;8.904;2022-08-21T17:43:49;23.20;96.40
11855;DHT22;5987;53.140;8.904;2022-08-21T17:46:53;23.00;97.30
11855;DHT22;5987;53.140;8.904;2022-08-21T17:49:57;22.90;98.70
11855;DHT22;5987;53.140;8.904;2022-08-21T17:53:02;22.80;99.90
11855;DHT22;5987;53.140;8.904;2022-08-21T17:56:06;22.70;99.90
11855;DHT22;5987;53.140;8.904;2022-08-21T17:59:12;22.60;99.90
11855;DHT22;5987;53.140;8.904;2022-08-21T18:02:16;22.50;99.90
11855;DHT22;5987;53.140;8.904;2022-08-21T18:05:21;22.40;99.90
11855;DHT22;5987;53.140;8.904;2022-08-21T18:08:26;22.30;99.90
11855;DHT22;5987;53.140;8.904;2022-08-21T18:11:30;22.30;99.90
11855;DHT22;5987;53.140;8.904;2022-08-21T18:14:35;22.20;99.90
11855;DHT22;5987;53.140;8.904;2022-08-21T18:17:41;22.20;99.90
11855;DHT22;5987;53.140;8.904;2022-08-21T18:20:48;22.10;99.90
11855;DHT22;5987;53.140;8.904;2022-08-21T18:23:53;22.00;99.90
11855;DHT22;5987;53.140;8.904;2022-08-21T18:26:57;22.00;99.90
11855;DHT22;5987;53.140;8.904;2022-08-21T18:30:01;21.90;99.90
11855;DHT22;5987;53.140;8.904;2022-08-21T18:33:07;21.90;99.90
11855;DHT22;5987;53.140;8.904;2022-08-21T18:36:11;21.80;99.90
11855;DHT22;5987;53.140;8.904;2022-08-21T18:39:17;21.80;99.90
11855;DHT22;5987;53.140;8.904;2022-08-21T18:42:41;21.80;99.90
11855;DHT22;5987;53.140;8.904;2022-08-21T18:45:56;21.80;99.90
11855;DHT22;5987;53.140;8.904;2022-08-21T18:48:59;21.70;99.90
11855;DHT22;5987;53.140;8.904;2022-08-21T18:52:05;21.60;99.90
11855;DHT22;5987;53.140;8.904;2022-08-21T18:55:16;21.60;99.90
11855;DHT22;5987;53.140;8.904;2022-08-21T18:58:22;21.60;99.90
11855;DHT22;5987;53.140;8.904;2022-08-21T19:01:25;21.50;99.90
11855;DHT22;5987;53.140;8.904;2022-08-21T19:04:29;21.50;99.90
11855;DHT22;5987;53.140;8.904;2022-08-21T19:07:45;21.40;99.90
11855;DHT22;5987;53.140;8.904;2022-08-21T19:10:51;21.40;99.90
11855;DHT22;5987;53.140;8.904;2022-08-21T19:14:00;21.20;99.90
11855;DHT22;5987;53.140;8.904;2022-08-21T19:17:06;21.10;99.90
11855;DHT22;5987;53.140;8.904;2022-08-21T19:20:13;21.10;99.90
11855;DHT22;5987;53.140;8.904;2022-08-21T19:23:39;21.00;99.90
11855;DHT22;5987;53.140;8.904;2022-08-21T19:26:47;21.10;99.90
11855;DHT22;5987;53.140;8.904;2022-08-21T19:29:56;21.00;99.90
11855;DHT22;5987;53.140;8.904;2022-08-21T19:33:00;21.00;99.90
11855;DHT22;5987;53.140;8.904;2022-08-21T19:36:05;21.00;99.90
11855;DHT22;5987;53.140;8.904;2022-08-21T19:39:12;21.00;99.90
11855;DHT22;5987;53.140;8.904;2022-08-21T19:42:18;21.10;99.90
11855;DHT22;5987;53.140;8.904;2022-08-21T19:45:30;21.10;99.90
11855;DHT22;5987;53.140;8.904;2022-08-21T19:48:40;20.90;99.90
11855;DHT22;5987;53.140;8.904;2022-08-21T19:51:48;20.90;99.90
11855;DHT22;5987;53.140;8.904;2022-08-21T19:54:52;21.00;99.90
11855;DHT22;5987;53.140;8.904;2022-08-21T19:57:57;20.90;99.90
11855;DHT22;5987;53.140;8.904;2022-08-21T20:01:03;20.90;99.90
11855;DHT22;5987;53.140;8.904;2022-08-21T20:04:17;20.90;99.90
11855;DHT22;5987;53.140;8.904;2022-08-21T20:07:22;20.90;99.90